Time;durP1;ratioP1;P1;durP2;ratioP2;P2;SDS_P1;SDS_P2;PMS_P1;PMS_P2;Temp;Humidity;BMP_temperature;BMP_pressure;BME280_temperature;BME280_humidity;BME280_pressure;Samples;Min_cycle;Max_cycle;Signal;HPM_P1;HPM_P2
2022/03/19 00:01:41;;;;;;;;;;;5.00;99.90;;;;;;4977546;28;19932;-72
2022/03/19 00:04:07;;;;;;;;;;;4.90;99.90;;;;;;4999192;28;19929;-72
2022/03/19 00:06:36;;;;;;;;;;;4.90;99.90;;;;;;4996887;28;19929;-72
2022/03/19 00:09:03;;;;;;;;;;;4.70;99.90;;;;;;4984836;28;20602;-72
2022/03/19 00:11:30;;;;;;;;;;;4.60;99.90;;;;;;4996653;28;19933;-71
2022/03/19 00:13:55;;;;;;;;;;;4.60;99.90;;;;;;4981945;28;20040;-71
2022/03/19 00:16:21;;;;;;;;;;;4.60;99.90;;;;;;4977906;28;19935;-71
2022/03/19 00:18:47;;;;;;;;;;;4.50;99.90;;;;;;4982242;28;19988;-71
2022/03/19 00:21:13;;;;;;;;;;;4.50;99.90;;;;;;4998074;28;19936;-71
2022/03/19 00:23:38;;;;;;;;;;;4.60;99.90;;;;;;4998248;28;20592;-72
2022/03/19 00:26:04;;;;;;;;;;;4.70;99.90;;;;;;4981789;28;19936;-71
2022/03/19 00:28:30;;;;;;;;;;;4.60;99.90;;;;;;4978988;28;19986;-71
2022/03/19 00:30:55;;;;;;;;;;;4.60;99.90;;;;;;4983390;28;19933;-71
2022/03/19 00:33:21;;;;;;;;;;;4.70;99.90;;;;;;4999248;28;20369;-71
2022/03/19 00:35:46;;;;;;;;;;;4.70;99.90;;;;;;4999992;28;19936;-71
2022/03/19 00:38:12;;;;;;;;;;;4.60;99.90;;;;;;4980429;28;19929;-71
2022/03/19 00:40:38;;;;;;;;;;;4.60;99.90;;;;;;4982243;28;19939;-71
2022/03/19 00:43:03;;;;;;;;;;;4.60;99.90;;;;;;4983666;28;20020;-72
2022/03/19 00:45:29;;;;;;;;;;;4.60;99.90;;;;;;4998127;28;19929;-72
2022/03/19 00:47:55;;;;;;;;;;;4.60;99.90;;;;;;4983719;28;20028;-71
2022/03/19 00:50:21;;;;;;;;;;;4.60;99.90;;;;;;4977235;28;19937;-71
2022/03/19 00:52:47;;;;;;;;;;;4.50;99.90;;;;;;4981343;28;19937;-71
2022/03/19 00:55:13;;;;;;;;;;;4.50;99.90;;;;;;4978144;28;19940;-71
2022/03/19 00:57:43;;;;;;;;;;;4.60;99.90;;;;;;4980331;28;19936;-72
2022/03/19 01:00:11;;;;;;;;;;;4.50;99.90;;;;;;4979886;28;19936;-71
2022/03/19 01:02:37;;;;;;;;;;;4.40;99.90;;;;;;4980969;28;19936;-71
2022/03/19 01:05:04;;;;;;;;;;;4.50;99.90;;;;;;4991351;28;20044;-71
2022/03/19 01:07:29;;;;;;;;;;;4.50;99.90;;;;;;4996781;28;19932;-71
2022/03/19 01:09:55;;;;;;;;;;;4.40;99.90;;;;;;4996176;28;19925;-71
2022/03/19 01:12:21;;;;;;;;;;;4.40;99.90;;;;;;4981807;28;19958;-71
2022/03/19 01:14:46;;;;;;;;;;;4.40;99.90;;;;;;4979730;28;19933;-71
2022/03/19 01:17:12;;;;;;;;;;;4.40;99.90;;;;;;4981411;28;20060;-71
2022/03/19 01:19:53;;;;;;;;;;;4.40;99.90;;;;;;4996650;28;20677;-71
2022/03/19 01:22:19;;;;;;;;;;;4.50;99.90;;;;;;4975832;28;20015;-71
2022/03/19 01:24:45;;;;;;;;;;;4.30;99.90;;;;;;4995234;28;19991;-71
2022/03/19 01:27:11;;;;;;;;;;;4.30;99.90;;;;;;4975661;28;19955;-71
2022/03/19 01:29:36;;;;;;;;;;;4.30;99.90;;;;;;4996156;28;19933;-71
2022/03/19 01:32:03;;;;;;;;;;;4.30;99.90;;;;;;4995600;28;20218;-71
2022/03/19 01:34:29;;;;;;;;;;;4.30;99.90;;;;;;4981090;28;19991;-71
2022/03/19 01:36:54;;;;;;;;;;;4.30;99.90;;;;;;4993391;28;20016;-71
2022/03/19 01:39:20;;;;;;;;;;;4.30;99.90;;;;;;4977478;28;19936;-71
2022/03/19 01:41:45;;;;;;;;;;;4.30;99.90;;;;;;4995171;28;19988;-71
2022/03/19 01:44:21;;;;;;;;;;;4.30;99.90;;;;;;4977853;28;20693;-71
2022/03/19 01:46:54;;;;;;;;;;;4.30;99.90;;;;;;4997598;28;19929;-72
2022/03/19 01:49:19;;;;;;;;;;;4.40;99.90;;;;;;4981798;28;20008;-71
2022/03/19 01:51:45;;;;;;;;;;;4.30;99.90;;;;;;4983629;28;19940;-71
2022/03/19 01:54:11;;;;;;;;;;;4.40;99.90;;;;;;4998393;28;19929;-71
2022/03/19 01:56:37;;;;;;;;;;;4.50;99.90;;;;;;4982079;28;19929;-71
2022/03/19 01:59:03;;;;;;;;;;;4.40;99.90;;;;;;4985925;28;19929;-71
2022/03/19 02:01:28;;;;;;;;;;;4.30;99.90;;;;;;4979993;28;19940;-71
2022/03/19 02:03:54;;;;;;;;;;;4.30;99.90;;;;;;4981816;28;19981;-71
2022/03/19 02:06:22;;;;;;;;;;;4.30;99.90;;;;;;4998354;28;19929;-71
2022/03/19 02:08:48;;;;;;;;;;;4.30;99.90;;;;;;4982100;28;20020;-71
2022/03/19 02:11:14;;;;;;;;;;;4.30;99.90;;;;;;4999102;28;19929;-71
2022/03/19 02:13:40;;;;;;;;;;;4.30;99.90;;;;;;4982643;28;20386;-71
2022/03/19 02:16:05;;;;;;;;;;;4.30;99.90;;;;;;4982222;28;19965;-71
2022/03/19 02:18:33;;;;;;;;;;;4.20;99.90;;;;;;4998203;28;20387;-71
2022/03/19 02:20:59;;;;;;;;;;;4.30;99.90;;;;;;4985042;28;19941;-71
2022/03/19 02:26:10;;;;;;;;;;;4.20;99.90;;;;;;4981840;28;20051;-71
2022/03/19 02:28:35;;;;;;;;;;;4.20;99.90;;;;;;5001029;28;19952;-71
2022/03/19 02:31:01;;;;;;;;;;;4.20;99.90;;;;;;5002555;28;19929;-71
2022/03/19 02:33:26;;;;;;;;;;;4.10;99.90;;;;;;4984093;28;20654;-71
2022/03/19 02:35:52;;;;;;;;;;;4.10;99.90;;;;;;5000002;28;19933;-71
2022/03/19 02:38:18;;;;;;;;;;;4.10;99.90;;;;;;4980149;28;20047;-71
2022/03/19 02:40:43;;;;;;;;;;;4.10;99.90;;;;;;5000330;28;19925;-71
2022/03/19 02:43:09;;;;;;;;;;;4.10;99.90;;;;;;5000422;28;19933;-71
2022/03/19 02:45:34;;;;;;;;;;;4.10;99.90;;;;;;5000884;28;20717;-71
2022/03/19 02:48:00;;;;;;;;;;;4.10;99.90;;;;;;4999872;28;19939;-71
2022/03/19 02:50:28;;;;;;;;;;;4.10;99.90;;;;;;4983981;28;19936;-71
2022/03/19 02:52:55;;;;;;;;;;;4.10;99.90;;;;;;5002070;28;20043;-71
2022/03/19 02:55:20;;;;;;;;;;;4.10;99.90;;;;;;4982859;28;19983;-71
2022/03/19 02:57:46;;;;;;;;;;;4.00;99.90;;;;;;4968604;28;19929;-71
2022/03/19 03:00:12;;;;;;;;;;;4.10;99.90;;;;;;4984233;28;19929;-72
2022/03/19 03:02:37;;;;;;;;;;;4.00;99.90;;;;;;4981590;28;19925;-71
2022/03/19 03:05:03;;;;;;;;;;;4.00;99.90;;;;;;5000899;28;19933;-72
2022/03/19 03:07:29;;;;;;;;;;;4.00;99.90;;;;;;4998937;28;20523;-71
2022/03/19 03:09:54;;;;;;;;;;;4.10;99.90;;;;;;4982683;28;20026;-71
2022/03/19 03:12:20;;;;;;;;;;;4.10;99.90;;;;;;4979651;28;19984;-71
2022/03/19 03:14:46;;;;;;;;;;;4.10;99.90;;;;;;4982865;28;19956;-71
2022/03/19 03:17:11;;;;;;;;;;;4.10;99.90;;;;;;4982052;28;19972;-71
2022/03/19 03:19:37;;;;;;;;;;;4.00;99.90;;;;;;4984308;28;19933;-71
2022/03/19 03:22:03;;;;;;;;;;;3.90;99.90;;;;;;4996302;28;19934;-71
2022/03/19 03:24:29;;;;;;;;;;;3.90;99.90;;;;;;4984518;28;19939;-71
2022/03/19 03:26:54;;;;;;;;;;;3.90;99.90;;;;;;4998720;28;19930;-71
2022/03/19 03:29:21;;;;;;;;;;;3.80;99.90;;;;;;4978119;28;19936;-71
2022/03/19 03:31:46;;;;;;;;;;;3.80;99.90;;;;;;4984008;28;20502;-71
2022/03/19 03:34:12;;;;;;;;;;;3.70;99.90;;;;;;4998555;28;19929;-71
2022/03/19 03:36:37;;;;;;;;;;;3.70;99.90;;;;;;4981189;28;19944;-71
2022/03/19 03:39:03;;;;;;;;;;;3.60;99.90;;;;;;4984013;28;20015;-71
2022/03/19 03:41:29;;;;;;;;;;;3.60;99.90;;;;;;4981089;28;19933;-71
2022/03/19 03:43:54;;;;;;;;;;;3.60;99.90;;;;;;4964754;28;20019;-71
2022/03/19 03:46:20;;;;;;;;;;;3.70;99.90;;;;;;4999867;28;20285;-71
2022/03/19 03:48:46;;;;;;;;;;;3.60;99.90;;;;;;4968464;28;19929;-71
2022/03/19 03:51:12;;;;;;;;;;;3.50;99.90;;;;;;5002536;28;19991;-71
2022/03/19 03:53:38;;;;;;;;;;;3.50;99.90;;;;;;4969311;28;20125;-71
2022/03/19 03:56:04;;;;;;;;;;;3.60;99.90;;;;;;4980656;28;19936;-71
2022/03/19 03:58:31;;;;;;;;;;;3.60;99.90;;;;;;4982636;28;20605;-71
2022/03/19 04:00:57;;;;;;;;;;;3.60;99.90;;;;;;4999738;28;20406;-71
2022/03/19 04:03:23;;;;;;;;;;;3.70;99.90;;;;;;4998305;28;19979;-71
2022/03/19 04:05:49;;;;;;;;;;;3.60;99.90;;;;;;4980645;28;19983;-71
2022/03/19 04:08:15;;;;;;;;;;;3.70;99.90;;;;;;4980213;28;19940;-71
2022/03/19 04:10:40;;;;;;;;;;;3.60;99.90;;;;;;4983742;28;19929;-71
2022/03/19 04:13:06;;;;;;;;;;;3.60;99.90;;;;;;5002135;28;19992;-71
2022/03/19 04:15:32;;;;;;;;;;;3.50;99.90;;;;;;4986954;28;20783;-71
2022/03/19 04:17:58;;;;;;;;;;;3.50;99.90;;;;;;5001041;28;19925;-71
2022/03/19 04:20:24;;;;;;;;;;;3.50;99.90;;;;;;4982154;28;20056;-71
2022/03/19 04:22:50;;;;;;;;;;;3.40;99.90;;;;;;4998072;28;20010;-72
2022/03/19 04:25:18;;;;;;;;;;;3.40;99.90;;;;;;4968358;28;20404;-71
2022/03/19 04:27:44;;;;;;;;;;;3.40;99.90;;;;;;4982323;28;19978;-71
2022/03/19 04:30:14;;;;;;;;;;;3.40;99.90;;;;;;4999923;28;19965;-71
2022/03/19 04:32:41;;;;;;;;;;;3.30;99.90;;;;;;4979697;28;20056;-71
2022/03/19 04:36:29;;;;;;;;;;;3.30;99.90;;;;;;4982930;28;20393;-71
2022/03/19 04:37:54;;;;;;;;;;;3.30;99.90;;;;;;4982722;28;19929;-71
2022/03/19 04:40:19;;;;;;;;;;;3.20;99.90;;;;;;4998880;28;19929;-71
2022/03/19 04:42:45;;;;;;;;;;;3.20;99.90;;;;;;4977775;28;19936;-72
2022/03/19 04:45:12;;;;;;;;;;;3.20;99.90;;;;;;4996108;28;19929;-71
2022/03/19 04:47:37;;;;;;;;;;;3.20;99.90;;;;;;5000105;28;19988;-71
2022/03/19 04:50:04;;;;;;;;;;;3.20;99.90;;;;;;5000466;28;19964;-71
2022/03/19 04:52:30;;;;;;;;;;;3.10;99.90;;;;;;4980984;28;20468;-71
2022/03/19 04:55:00;;;;;;;;;;;3.10;99.90;;;;;;4996696;28;19930;-71
2022/03/19 04:57:28;;;;;;;;;;;3.10;99.90;;;;;;4981345;28;19929;-71
2022/03/19 04:59:55;;;;;;;;;;;2.90;99.90;;;;;;4982207;28;19929;-71
2022/03/19 05:02:24;;;;;;;;;;;2.90;99.90;;;;;;4980488;28;19929;-71
2022/03/19 05:04:54;;;;;;;;;;;3.00;99.90;;;;;;4980567;28;19981;-71
2022/03/19 05:07:20;;;;;;;;;;;3.00;99.90;;;;;;4980086;28;19982;-71
2022/03/19 05:12:31;;;;;;;;;;;3.00;99.90;;;;;;4997675;28;19925;-71
2022/03/19 05:14:57;;;;;;;;;;;3.00;99.90;;;;;;4996540;28;19929;-71
2022/03/19 05:17:23;;;;;;;;;;;3.00;99.90;;;;;;4996505;28;20391;-71
2022/03/19 05:19:49;;;;;;;;;;;2.90;99.90;;;;;;4981618;28;19941;-71
2022/03/19 05:22:14;;;;;;;;;;;3.10;99.90;;;;;;4998247;28;19929;-71
2022/03/19 05:24:41;;;;;;;;;;;2.90;99.90;;;;;;4986529;28;20036;-72
2022/03/19 05:27:08;;;;;;;;;;;3.20;99.90;;;;;;5001478;28;19952;-71
2022/03/19 05:29:33;;;;;;;;;;;3.10;99.90;;;;;;5002304;28;19951;-71
2022/03/19 05:31:59;;;;;;;;;;;3.30;99.90;;;;;;4987064;28;19932;-72
2022/03/19 05:34:31;;;;;;;;;;;3.40;99.90;;;;;;4983679;28;20510;-71
2022/03/19 05:37:00;;;;;;;;;;;3.40;99.90;;;;;;4985709;28;19940;-71
2022/03/19 05:39:26;;;;;;;;;;;3.40;99.90;;;;;;5000082;28;20931;-71
2022/03/19 05:41:52;;;;;;;;;;;3.50;99.90;;;;;;5003962;28;20730;-72
2022/03/19 05:44:18;;;;;;;;;;;3.60;99.90;;;;;;4985283;28;20662;-72
2022/03/19 05:46:44;;;;;;;;;;;3.70;99.90;;;;;;4986033;28;19925;-71
2022/03/19 05:49:09;;;;;;;;;;;3.60;99.90;;;;;;5002036;28;19940;-71
2022/03/19 05:51:35;;;;;;;;;;;3.80;99.90;;;;;;4984888;28;20014;-71
2022/03/19 05:54:00;;;;;;;;;;;3.90;99.90;;;;;;5000435;28;20040;-70
2022/03/19 05:56:26;;;;;;;;;;;3.90;99.90;;;;;;5001907;28;19979;-69
2022/03/19 05:58:54;;;;;;;;;;;4.00;99.90;;;;;;4983706;28;19933;-70
2022/03/19 06:01:25;;;;;;;;;;;4.00;99.90;;;;;;4986450;28;19940;-70
2022/03/19 06:03:52;;;;;;;;;;;4.00;99.90;;;;;;4984844;28;19929;-71
2022/03/19 06:06:17;;;;;;;;;;;4.20;99.90;;;;;;4983966;28;19929;-71
2022/03/19 06:08:43;;;;;;;;;;;4.20;99.90;;;;;;4983607;28;19936;-71
2022/03/19 06:11:09;;;;;;;;;;;4.30;99.90;;;;;;5000020;28;21126;-71
2022/03/19 06:13:34;;;;;;;;;;;4.20;99.90;;;;;;4996257;28;20474;-72
2022/03/19 06:16:00;;;;;;;;;;;4.30;99.90;;;;;;4976992;28;19929;-71
2022/03/19 06:18:26;;;;;;;;;;;4.30;99.90;;;;;;4977497;28;19929;-71
2022/03/19 06:20:51;;;;;;;;;;;4.50;99.90;;;;;;4977106;28;20302;-71
2022/03/19 06:23:17;;;;;;;;;;;4.60;99.90;;;;;;4976030;28;19940;-71
2022/03/19 06:25:43;;;;;;;;;;;4.60;99.90;;;;;;4978783;28;19925;-71
2022/03/19 06:28:08;;;;;;;;;;;4.70;99.90;;;;;;4969103;28;19933;-71
2022/03/19 06:30:37;;;;;;;;;;;4.80;99.90;;;;;;4982387;28;19929;-70
2022/03/19 06:33:03;;;;;;;;;;;4.90;99.90;;;;;;4996447;28;20096;-71
2022/03/19 06:38:13;;;;;;;;;;;5.10;99.90;;;;;;4985955;28;19925;-71
2022/03/19 06:40:39;;;;;;;;;;;5.10;99.90;;;;;;4987546;28;19933;-71
2022/03/19 06:43:05;;;;;;;;;;;5.20;99.90;;;;;;5003965;28;19935;-71
2022/03/19 06:45:30;;;;;;;;;;;5.30;99.90;;;;;;4980767;28;20398;-71
2022/03/19 06:47:56;;;;;;;;;;;5.40;99.90;;;;;;4982664;28;19929;-72
2022/03/19 06:50:21;;;;;;;;;;;5.50;99.90;;;;;;4982503;28;20375;-71
2022/03/19 06:52:47;;;;;;;;;;;5.50;99.90;;;;;;5004320;28;20190;-71
2022/03/19 06:55:12;;;;;;;;;;;5.60;99.90;;;;;;5003598;28;19972;-71
2022/03/19 06:57:38;;;;;;;;;;;5.70;99.90;;;;;;4985909;28;20204;-71
2022/03/19 07:00:04;;;;;;;;;;;5.80;99.90;;;;;;4986695;28;19971;-70
2022/03/19 07:02:29;;;;;;;;;;;5.90;99.90;;;;;;4985172;28;19929;-71
2022/03/19 07:04:55;;;;;;;;;;;5.90;99.90;;;;;;4984687;28;19929;-71
2022/03/19 07:07:21;;;;;;;;;;;6.00;99.90;;;;;;4984212;28;19937;-72
2022/03/19 07:09:46;;;;;;;;;;;6.10;99.90;;;;;;4986017;28;19936;-72
2022/03/19 07:12:13;;;;;;;;;;;6.10;99.90;;;;;;4984850;28;19968;-71
2022/03/19 07:14:39;;;;;;;;;;;6.30;99.90;;;;;;5002281;28;20617;-71
2022/03/19 07:17:05;;;;;;;;;;;6.40;99.90;;;;;;4982396;28;19925;-72
2022/03/19 07:19:31;;;;;;;;;;;6.40;99.90;;;;;;4983789;28;20006;-72
2022/03/19 07:21:57;;;;;;;;;;;6.60;99.90;;;;;;4984401;28;19929;-72
2022/03/19 07:24:23;;;;;;;;;;;6.70;99.90;;;;;;4983892;28;19937;-71
2022/03/19 07:26:48;;;;;;;;;;;6.70;99.90;;;;;;4984486;28;19959;-71
2022/03/19 07:29:18;;;;;;;;;;;6.80;99.90;;;;;;5004168;28;19929;-72
2022/03/19 07:31:44;;;;;;;;;;;7.00;99.90;;;;;;5002647;28;20477;-71
2022/03/19 07:34:10;;;;;;;;;;;7.00;99.90;;;;;;4985350;28;20015;-71
2022/03/19 07:36:36;;;;;;;;;;;7.30;99.90;;;;;;5001116;28;19934;-72
2022/03/19 07:39:02;;;;;;;;;;;7.10;99.90;;;;;;4970891;28;20306;-71
2022/03/19 07:41:48;;;;;;;;;;;7.20;99.90;;;;;;5000802;28;20762;-71
2022/03/19 07:44:13;;;;;;;;;;;7.30;99.90;;;;;;4984025;28;19948;-72
2022/03/19 07:46:41;;;;;;;;;;;7.30;99.90;;;;;;4981277;28;20985;-71
2022/03/19 07:49:08;;;;;;;;;;;7.30;99.90;;;;;;5002890;28;22595;-72
2022/03/19 07:51:33;;;;;;;;;;;7.50;99.90;;;;;;4968051;28;19929;-71
2022/03/19 07:53:59;;;;;;;;;;;7.60;99.90;;;;;;4997436;28;19933;-72
2022/03/19 07:56:25;;;;;;;;;;;7.90;99.90;;;;;;4983987;28;20000;-71
2022/03/19 07:58:51;;;;;;;;;;;7.70;99.90;;;;;;4982692;28;20020;-71
2022/03/19 08:01:17;;;;;;;;;;;7.80;99.90;;;;;;4982564;28;21091;-71
2022/03/19 08:03:43;;;;;;;;;;;7.70;99.90;;;;;;4985775;28;19933;-71
2022/03/19 08:06:09;;;;;;;;;;;8.00;99.90;;;;;;4984389;28;19940;-72
2022/03/19 08:08:36;;;;;;;;;;;8.00;99.90;;;;;;4984959;28;19925;-72
2022/03/19 08:11:01;;;;;;;;;;;8.10;99.90;;;;;;4983535;28;19929;-71
2022/03/19 08:13:27;;;;;;;;;;;8.00;99.90;;;;;;4984348;28;20383;-71
2022/03/19 08:15:53;;;;;;;;;;;8.10;99.90;;;;;;4997148;28;19933;-72
2022/03/19 08:18:19;;;;;;;;;;;8.20;99.90;;;;;;4980256;28;19943;-71
2022/03/19 08:20:46;;;;;;;;;;;8.20;99.90;;;;;;4982653;28;20023;-73
2022/03/19 08:23:13;;;;;;;;;;;8.60;99.90;;;;;;4981400;28;19952;-72
2022/03/19 08:25:39;;;;;;;;;;;8.40;99.90;;;;;;4995738;28;20354;-73
2022/03/19 08:28:05;;;;;;;;;;;8.30;99.90;;;;;;5002365;28;19930;-72
2022/03/19 08:30:31;;;;;;;;;;;8.50;99.90;;;;;;4978849;28;19929;-73
2022/03/19 08:32:57;;;;;;;;;;;8.80;99.90;;;;;;4998288;28;20416;-72
2022/03/19 08:35:22;;;;;;;;;;;8.80;99.90;;;;;;4981557;28;20048;-72
2022/03/19 08:37:48;;;;;;;;;;;8.70;99.90;;;;;;4995471;28;19929;-72
2022/03/19 08:40:16;;;;;;;;;;;9.00;99.90;;;;;;4995436;28;20775;-72
2022/03/19 08:42:46;;;;;;;;;;;8.80;99.90;;;;;;4982013;28;19983;-72
2022/03/19 08:45:12;;;;;;;;;;;9.30;99.90;;;;;;4983480;28;19929;-72
2022/03/19 08:47:37;;;;;;;;;;;9.20;99.90;;;;;;5000105;28;20047;-72
2022/03/19 08:50:03;;;;;;;;;;;8.90;99.90;;;;;;4987667;28;19929;-72
2022/03/19 08:52:29;;;;;;;;;;;9.00;99.90;;;;;;4983318;28;19933;-72
2022/03/19 08:54:55;;;;;;;;;;;9.10;99.90;;;;;;4997878;28;19940;-72
2022/03/19 08:57:21;;;;;;;;;;;9.10;99.90;;;;;;4993699;28;19968;-72
2022/03/19 08:59:46;;;;;;;;;;;9.30;99.90;;;;;;4993052;28;20071;-73
2022/03/19 09:02:12;;;;;;;;;;;9.40;99.90;;;;;;5001041;28;20700;-72
2022/03/19 09:04:38;;;;;;;;;;;9.50;99.90;;;;;;4974059;28;19983;-71
2022/03/19 09:07:04;;;;;;;;;;;9.40;99.90;;;;;;4994392;28;19929;-71
2022/03/19 09:09:29;;;;;;;;;;;10.10;99.90;;;;;;4989591;28;20025;-72
2022/03/19 09:11:55;;;;;;;;;;;9.90;99.90;;;;;;4970852;28;19925;-72
2022/03/19 09:14:22;;;;;;;;;;;10.10;99.90;;;;;;4999837;28;20372;-73
2022/03/19 09:16:47;;;;;;;;;;;9.80;99.90;;;;;;4980149;28;19935;-72
2022/03/19 09:19:13;;;;;;;;;;;10.10;99.90;;;;;;4980092;28;19925;-72
2022/03/19 09:21:39;;;;;;;;;;;10.10;99.90;;;;;;4977598;28;20689;-73
2022/03/19 09:24:05;;;;;;;;;;;10.20;98.20;;;;;;4979367;28;20057;-72
2022/03/19 09:26:30;;;;;;;;;;;10.40;99.90;;;;;;4980462;28;20017;-72
2022/03/19 09:28:57;;;;;;;;;;;10.70;97.30;;;;;;4982989;28;19929;-72
2022/03/19 09:31:23;;;;;;;;;;;10.30;88.60;;;;;;4981514;28;20680;-73
2022/03/19 09:33:49;;;;;;;;;;;10.20;91.20;;;;;;4996882;28;19933;-72
2022/03/19 09:36:14;;;;;;;;;;;10.30;90.80;;;;;;4999412;28;19934;-73
2022/03/19 09:38:40;;;;;;;;;;;10.30;96.80;;;;;;4979199;28;19933;-73
2022/03/19 09:41:09;;;;;;;;;;;10.40;91.30;;;;;;4981859;28;19929;-73
2022/03/19 09:43:35;;;;;;;;;;;10.50;92.10;;;;;;4982003;28;20393;-73
2022/03/19 09:46:02;;;;;;;;;;;10.30;89.20;;;;;;4996572;28;19929;-72
2022/03/19 09:48:28;;;;;;;;;;;10.20;91.60;;;;;;5000434;28;20770;-72
2022/03/19 09:50:54;;;;;;;;;;;10.50;91.10;;;;;;5001720;28;19936;-73
2022/03/19 09:53:22;;;;;;;;;;;10.30;95.10;;;;;;4979156;28;20426;-72
2022/03/19 09:55:48;;;;;;;;;;;10.60;99.90;;;;;;4976927;28;19983;-71
2022/03/19 09:58:15;;;;;;;;;;;10.90;95.00;;;;;;4982983;28;20465;-71
2022/03/19 10:00:41;;;;;;;;;;;11.30;98.70;;;;;;4982620;28;19929;-72
2022/03/19 10:03:08;;;;;;;;;;;11.10;84.30;;;;;;4997403;28;19943;-72
2022/03/19 10:08:37;;;;;;;;;;;11.00;76.90;;;;;;4975405;28;19929;-72
2022/03/19 10:11:03;;;;;;;;;;;10.90;75.70;;;;;;4992584;28;20647;-72
2022/03/19 10:13:28;;;;;;;;;;;11.10;80.70;;;;;;4998307;28;20278;-73
2022/03/19 10:15:54;;;;;;;;;;;10.70;75.20;;;;;;4984355;28;20770;-73
2022/03/19 10:18:27;;;;;;;;;;;11.10;72.60;;;;;;4987911;28;19928;-73
2022/03/19 10:20:53;;;;;;;;;;;11.70;83.00;;;;;;4985698;28;20642;-72
2022/03/19 10:23:36;;;;;;;;;;;11.30;77.10;;;;;;4956546;28;19933;-71
2022/03/19 10:26:02;;;;;;;;;;;11.80;78.60;;;;;;4963632;28;19929;-72
2022/03/19 10:28:32;;;;;;;;;;;12.20;78.40;;;;;;4966852;28;20615;-73
2022/03/19 10:30:58;;;;;;;;;;;11.80;65.90;;;;;;4966848;28;20776;-72
2022/03/19 10:33:30;;;;;;;;;;;12.10;67.50;;;;;;4962732;28;19994;-72
2022/03/19 10:36:06;;;;;;;;;;;12.10;66.10;;;;;;4966068;28;19933;-73
2022/03/19 10:38:39;;;;;;;;;;;11.90;64.80;;;;;;4986139;28;19929;-72
2022/03/19 10:41:05;;;;;;;;;;;12.10;66.60;;;;;;4973239;28;20283;-73
2022/03/19 10:43:32;;;;;;;;;;;11.80;64.10;;;;;;4986467;28;19929;-72
2022/03/19 10:45:58;;;;;;;;;;;12.10;65.90;;;;;;4996790;28;19929;-72
2022/03/19 10:48:25;;;;;;;;;;;11.90;62.80;;;;;;4956352;28;19935;-72
2022/03/19 10:50:51;;;;;;;;;;;12.20;68.30;;;;;;4969350;28;19932;-72
2022/03/19 10:53:18;;;;;;;;;;;12.00;63.50;;;;;;4968439;28;19994;-73
2022/03/19 10:55:43;;;;;;;;;;;12.10;63.10;;;;;;4957511;28;19986;-73
2022/03/19 10:58:09;;;;;;;;;;;12.10;61.80;;;;;;4982182;28;19933;-73
2022/03/19 11:00:35;;;;;;;;;;;12.50;61.20;;;;;;4971555;28;20701;-72
2022/03/19 11:03:06;;;;;;;;;;;12.80;64.00;;;;;;4976437;28;19941;-72
2022/03/19 11:05:33;;;;;;;;;;;12.70;62.40;;;;;;4966518;28;19929;-72
2022/03/19 11:08:01;;;;;;;;;;;12.90;62.10;;;;;;4966226;28;19940;-72
2022/03/19 11:10:27;;;;;;;;;;;13.10;64.30;;;;;;4978888;28;20165;-73
2022/03/19 11:12:54;;;;;;;;;;;12.80;58.10;;;;;;4965954;28;19930;-73
2022/03/19 11:15:20;;;;;;;;;;;12.90;61.40;;;;;;4968214;28;20052;-73
2022/03/19 11:17:48;;;;;;;;;;;12.60;60.00;;;;;;4988023;28;19925;-72
2022/03/19 11:20:13;;;;;;;;;;;12.90;57.20;;;;;;4976726;28;19925;-72
2022/03/19 11:22:44;;;;;;;;;;;12.90;58.00;;;;;;4989945;28;20349;-73
2022/03/19 11:25:13;;;;;;;;;;;13.20;57.60;;;;;;4989474;28;19933;-72
2022/03/19 11:27:41;;;;;;;;;;;12.90;58.20;;;;;;4957403;28;19983;-73
2022/03/19 11:30:14;;;;;;;;;;;12.60;56.20;;;;;;4986919;28;19980;-73
2022/03/19 11:32:58;;;;;;;;;;;12.50;59.10;;;;;;4990648;28;20249;-72
2022/03/19 11:35:27;;;;;;;;;;;13.00;59.90;;;;;;4990222;28;19929;-73
2022/03/19 11:37:57;;;;;;;;;;;12.60;56.20;;;;;;4972592;28;20008;-72
2022/03/19 11:40:22;;;;;;;;;;;13.10;57.10;;;;;;4972218;28;19929;-72
2022/03/19 11:42:57;;;;;;;;;;;13.20;54.50;;;;;;4987585;28;19964;-72
2022/03/19 11:45:23;;;;;;;;;;;13.20;53.90;;;;;;4989084;28;19974;-72
2022/03/19 11:47:49;;;;;;;;;;;13.20;55.20;;;;;;4987847;28;20971;-73
2022/03/19 11:50:23;;;;;;;;;;;13.50;55.30;;;;;;4988061;28;19925;-74
2022/03/19 11:52:49;;;;;;;;;;;13.00;51.30;;;;;;4976552;28;19972;-73
2022/03/19 11:55:18;;;;;;;;;;;12.90;52.40;;;;;;4997954;28;20024;-75
2022/03/19 11:57:46;;;;;;;;;;;13.10;51.50;;;;;;5002393;28;19987;-72
2022/03/19 12:00:19;;;;;;;;;;;13.50;54.20;;;;;;4991138;28;20047;-73
2022/03/19 12:03:05;;;;;;;;;;;13.40;53.70;;;;;;4985163;28;20699;-73
2022/03/19 12:05:31;;;;;;;;;;;13.50;53.20;;;;;;4997955;28;19940;-74
2022/03/19 12:08:04;;;;;;;;;;;13.30;51.30;;;;;;4980605;28;19929;-73
2022/03/19 12:10:37;;;;;;;;;;;13.40;53.20;;;;;;5002208;28;19991;-73
2022/03/19 12:13:22;;;;;;;;;;;13.80;53.00;;;;;;4983381;28;19934;-73
2022/03/19 12:15:48;;;;;;;;;;;13.30;52.70;;;;;;4978697;28;19969;-73
2022/03/19 12:18:27;;;;;;;;;;;13.30;52.70;;;;;;4981570;28;20092;-73
2022/03/19 12:20:54;;;;;;;;;;;13.60;54.30;;;;;;4974855;28;19926;-74
2022/03/19 12:23:20;;;;;;;;;;;13.40;52.00;;;;;;4980445;28;19929;-73
2022/03/19 12:25:56;;;;;;;;;;;13.10;52.60;;;;;;4995286;28;19983;-71
2022/03/19 12:28:22;;;;;;;;;;;13.40;55.20;;;;;;4986143;28;19934;-73
2022/03/19 12:30:48;;;;;;;;;;;13.20;52.30;;;;;;4983855;28;19991;-72
2022/03/19 12:33:14;;;;;;;;;;;13.30;52.20;;;;;;4969308;28;20382;-73
2022/03/19 12:35:41;;;;;;;;;;;13.50;51.40;;;;;;4973573;28;20016;-73
2022/03/19 12:38:08;;;;;;;;;;;13.50;51.50;;;;;;5000244;28;20014;-73
2022/03/19 12:43:18;;;;;;;;;;;13.10;51.20;;;;;;4982873;28;19929;-72
2022/03/19 12:45:47;;;;;;;;;;;13.60;52.10;;;;;;4984167;28;20678;-72
2022/03/19 12:48:14;;;;;;;;;;;13.60;52.40;;;;;;4984866;28;19929;-72
2022/03/19 12:50:46;;;;;;;;;;;13.20;50.60;;;;;;4993976;28;19940;-72
2022/03/19 12:53:12;;;;;;;;;;;13.50;52.20;;;;;;4983975;28;20417;-72
2022/03/19 12:55:38;;;;;;;;;;;13.20;51.00;;;;;;5002968;28;19933;-72
2022/03/19 12:58:03;;;;;;;;;;;13.40;51.50;;;;;;4998455;28;20012;-73
2022/03/19 13:00:29;;;;;;;;;;;13.30;51.80;;;;;;4984338;28;20003;-73
2022/03/19 13:02:55;;;;;;;;;;;13.40;54.90;;;;;;4986348;28;20382;-73
2022/03/19 13:05:23;;;;;;;;;;;13.70;55.30;;;;;;4968618;28;19980;-73
2022/03/19 13:07:59;;;;;;;;;;;13.50;53.60;;;;;;4980103;28;19933;-73
2022/03/19 13:10:24;;;;;;;;;;;13.90;54.30;;;;;;4984957;28;20311;-73
2022/03/19 13:13:02;;;;;;;;;;;13.50;56.90;;;;;;5001856;28;20449;-73
2022/03/19 13:15:27;;;;;;;;;;;13.60;52.60;;;;;;4984809;28;19933;-73
2022/03/19 13:17:53;;;;;;;;;;;14.00;53.80;;;;;;4986379;28;19988;-74
2022/03/19 13:20:18;;;;;;;;;;;13.30;51.20;;;;;;5000141;28;19929;-72
2022/03/19 13:22:44;;;;;;;;;;;13.60;55.00;;;;;;4995583;28;19940;-72
2022/03/19 13:25:10;;;;;;;;;;;13.40;51.80;;;;;;4984591;28;20008;-73
2022/03/19 13:27:36;;;;;;;;;;;13.50;52.30;;;;;;4984430;28;19939;-73
2022/03/19 13:30:10;;;;;;;;;;;13.70;52.30;;;;;;4983313;28;19929;-73
2022/03/19 13:32:35;;;;;;;;;;;13.60;56.50;;;;;;4979863;28;19981;-73
2022/03/19 13:35:01;;;;;;;;;;;13.40;55.20;;;;;;5004121;28;20015;-72
2022/03/19 13:37:34;;;;;;;;;;;13.50;54.90;;;;;;4984096;28;20976;-74
2022/03/19 13:40:01;;;;;;;;;;;13.10;53.30;;;;;;5000186;28;20809;-72
2022/03/19 13:42:31;;;;;;;;;;;13.60;55.10;;;;;;4970479;28;20023;-73
2022/03/19 13:45:16;;;;;;;;;;;13.80;55.20;;;;;;4981330;28;19983;-73
2022/03/19 13:47:50;;;;;;;;;;;13.60;54.90;;;;;;4988017;28;19937;-73
2022/03/19 13:50:17;;;;;;;;;;;13.30;51.20;;;;;;5004308;28;19999;-72
2022/03/19 13:52:43;;;;;;;;;;;13.30;54.70;;;;;;4989215;28;19929;-72
2022/03/19 13:55:10;;;;;;;;;;;13.30;55.10;;;;;;4988363;28;20016;-73
2022/03/19 13:57:38;;;;;;;;;;;13.60;55.70;;;;;;4983694;28;19933;-72
2022/03/19 14:00:08;;;;;;;;;;;13.40;54.50;;;;;;4969954;28;19976;-72
2022/03/19 14:02:34;;;;;;;;;;;13.30;53.70;;;;;;4998313;28;20029;-74
2022/03/19 14:05:01;;;;;;;;;;;13.10;54.50;;;;;;5000746;28;19929;-73
2022/03/19 14:07:31;;;;;;;;;;;13.10;56.30;;;;;;4988059;28;19929;-74
2022/03/19 14:10:00;;;;;;;;;;;13.20;55.20;;;;;;4985513;28;21082;-72
2022/03/19 14:12:36;;;;;;;;;;;13.30;58.50;;;;;;4981019;28;19933;-73
2022/03/19 14:15:02;;;;;;;;;;;13.30;56.90;;;;;;5003351;28;19929;-73
2022/03/19 14:17:43;;;;;;;;;;;13.50;54.40;;;;;;5006984;28;20296;-72
2022/03/19 14:20:10;;;;;;;;;;;13.50;52.70;;;;;;4988598;28;19975;-72
2022/03/19 14:22:36;;;;;;;;;;;13.30;53.80;;;;;;4984940;28;20280;-72
2022/03/19 14:25:01;;;;;;;;;;;13.40;55.10;;;;;;5002576;28;19948;-73
2022/03/19 14:27:27;;;;;;;;;;;13.20;51.90;;;;;;5005194;28;19951;-71
2022/03/19 14:29:53;;;;;;;;;;;13.20;51.60;;;;;;4985439;28;20354;-72
2022/03/19 14:32:18;;;;;;;;;;;13.40;51.80;;;;;;5005090;28;19937;-73
2022/03/19 14:34:44;;;;;;;;;;;13.40;52.50;;;;;;4997961;28;19933;-72
2022/03/19 14:37:11;;;;;;;;;;;13.30;51.60;;;;;;4982381;28;19936;-72
2022/03/19 14:39:37;;;;;;;;;;;13.30;50.80;;;;;;4986890;28;20043;-73